sensor_id;sensor_type;location;lat;lon;timestamp;temperature;humidity
54680;DHT22;40578;53.178;5.846;2023-10-13T00:01:07;15.00;99.90
54680;DHT22;40578;53.178;5.846;2023-10-13T00:03:33;15.00;99.90
54680;DHT22;40578;53.178;5.846;2023-10-13T00:05:59;15.10;99.90
54680;DHT22;40578;53.178;5.846;2023-10-13T00:08:31;15.70;99.90
54680;DHT22;40578;53.178;5.846;2023-10-13T00:10:57;15.20;99.90
54680;DHT22;40578;53.178;5.846;2023-10-13T00:13:26;15.40;99.90
54680;DHT22;40578;53.178;5.846;2023-10-13T00:15:52;15.40;99.90
54680;DHT22;40578;53.178;5.846;2023-10-13T00:18:28;15.50;99.90
54680;DHT22;40578;53.178;5.846;2023-10-13T00:21:03;15.50;99.90
54680;DHT22;40578;53.178;5.846;2023-10-13T00:23:44;15.80;99.90
54680;DHT22;40578;53.178;5.846;2023-10-13T00:26:23;15.60;99.90
54680;DHT22;40578;53.178;5.846;2023-10-13T00:28:52;15.60;99.90
54680;DHT22;40578;53.178;5.846;2023-10-13T00:31:25;15.80;99.90
54680;DHT22;40578;53.178;5.846;2023-10-13T00:33:58;15.90;99.90
54680;DHT22;40578;53.178;5.846;2023-10-13T00:36:35;15.80;99.90
54680;DHT22;40578;53.178;5.846;2023-10-13T00:39:01;17.30;99.90
54680;DHT22;40578;53.178;5.846;2023-10-13T00:41:29;16.10;99.90
54680;DHT22;40578;53.178;5.846;2023-10-13T00:44:13;16.20;99.90
54680;DHT22;40578;53.178;5.846;2023-10-13T00:46:41;16.30;99.90
54680;DHT22;40578;53.178;5.846;2023-10-13T00:49:11;16.40;99.90
54680;DHT22;40578;53.178;5.846;2023-10-13T00:59:56;16.50;99.90
54680;DHT22;40578;53.178;5.846;2023-10-13T01:02:23;16.50;99.90
54680;DHT22;40578;53.178;5.846;2023-10-13T01:05:05;16.50;99.90
54680;DHT22;40578;53.178;5.846;2023-10-13T01:07:32;16.50;99.90
54680;DHT22;40578;53.178;5.846;2023-10-13T01:10:01;16.60;99.90
54680;DHT22;40578;53.178;5.846;2023-10-13T01:12:30;16.70;99.90
54680;DHT22;40578;53.178;5.846;2023-10-13T01:14:57;16.70;99.90
54680;DHT22;40578;53.178;5.846;2023-10-13T01:17:23;16.80;99.90
54680;DHT22;40578;53.178;5.846;2023-10-13T01:19:49;17.00;99.90
54680;DHT22;40578;53.178;5.846;2023-10-13T01:22:15;17.10;99.90
54680;DHT22;40578;53.178;5.846;2023-10-13T01:24:40;17.10;99.90
54680;DHT22;40578;53.178;5.846;2023-10-13T01:27:07;17.10;99.90
54680;DHT22;40578;53.178;5.846;2023-10-13T01:29:47;17.10;99.90
54680;DHT22;40578;53.178;5.846;2023-10-13T01:32:24;17.20;99.90
54680;DHT22;40578;53.178;5.846;2023-10-13T01:34:50;17.10;99.90
54680;DHT22;40578;53.178;5.846;2023-10-13T01:37:21;17.10;99.90
54680;DHT22;40578;53.178;5.846;2023-10-13T01:39:47;17.00;99.90
54680;DHT22;40578;53.178;5.846;2023-10-13T01:42:15;17.10;99.90
54680;DHT22;40578;53.178;5.846;2023-10-13T01:44:45;17.10;99.90
54680;DHT22;40578;53.178;5.846;2023-10-13T01:47:11;17.20;99.90
54680;DHT22;40578;53.178;5.846;2023-10-13T01:49:38;17.10;99.90
54680;DHT22;40578;53.178;5.846;2023-10-13T01:52:15;17.10;99.90
54680;DHT22;40578;53.178;5.846;2023-10-13T01:54:45;17.00;99.90
54680;DHT22;40578;53.178;5.846;2023-10-13T01:57:12;17.10;99.90
54680;DHT22;40578;53.178;5.846;2023-10-13T01:59:49;17.20;99.90
54680;DHT22;40578;53.178;5.846;2023-10-13T02:02:15;17.10;99.90
54680;DHT22;40578;53.178;5.846;2023-10-13T02:04:48;17.20;99.90
54680;DHT22;40578;53.178;5.846;2023-10-13T02:07:23;17.20;99.90
54680;DHT22;40578;53.178;5.846;2023-10-13T02:10:00;17.10;99.90
54680;DHT22;40578;53.178;5.846;2023-10-13T02:12:30;17.50;99.90
54680;DHT22;40578;53.178;5.846;2023-10-13T02:15:03;17.30;99.90
54680;DHT22;40578;53.178;5.846;2023-10-13T02:17:30;17.20;99.90
54680;DHT22;40578;53.178;5.846;2023-10-13T02:20:07;17.20;99.90
54680;DHT22;40578;53.178;5.846;2023-10-13T02:22:42;17.30;99.90
54680;DHT22;40578;53.178;5.846;2023-10-13T02:25:17;17.20;99.90
54680;DHT22;40578;53.178;5.846;2023-10-13T02:28:00;17.30;99.90
54680;DHT22;40578;53.178;5.846;2023-10-13T02:30:26;17.30;99.90
54680;DHT22;40578;53.178;5.846;2023-10-13T02:32:52;17.30;99.90
54680;DHT22;40578;53.178;5.846;2023-10-13T02:35:18;17.40;99.90
54680;DHT22;40578;53.178;5.846;2023-10-13T02:37:55;17.40;99.90
54680;DHT22;40578;53.178;5.846;2023-10-13T02:40:22;17.20;99.90
54680;DHT22;40578;53.178;5.846;2023-10-13T02:42:49;17.20;99.90
54680;DHT22;40578;53.178;5.846;2023-10-13T02:45:14;17.30;99.90
54680;DHT22;40578;53.178;5.846;2023-10-13T02:47:40;17.30;99.90
54680;DHT22;40578;53.178;5.846;2023-10-13T02:50:09;18.00;99.90
54680;DHT22;40578;53.178;5.846;2023-10-13T02:52:37;17.40;99.90
54680;DHT22;40578;53.178;5.846;2023-10-13T02:55:07;17.30;99.90
54680;DHT22;40578;53.178;5.846;2023-10-13T02:57:39;17.40;99.90
54680;DHT22;40578;53.178;5.846;2023-10-13T03:00:09;17.30;99.90
54680;DHT22;40578;53.178;5.846;2023-10-13T03:02:38;17.50;99.90
54680;DHT22;40578;53.178;5.846;2023-10-13T03:05:10;17.40;99.90
54680;DHT22;40578;53.178;5.846;2023-10-13T03:07:39;17.30;99.90
54680;DHT22;40578;53.178;5.846;2023-10-13T03:10:09;17.40;99.90
54680;DHT22;40578;53.178;5.846;2023-10-13T03:12:39;17.50;99.90
54680;DHT22;40578;53.178;5.846;2023-10-13T03:15:06;17.50;99.90
54680;DHT22;40578;53.178;5.846;2023-10-13T03:17:46;17.50;99.90
54680;DHT22;40578;53.178;5.846;2023-10-13T03:20:14;17.80;99.90
54680;DHT22;40578;53.178;5.846;2023-10-13T03:22:42;17.60;99.90
54680;DHT22;40578;53.178;5.846;2023-10-13T03:25:14;17.60;99.90
54680;DHT22;40578;53.178;5.846;2023-10-13T03:27:50;17.50;99.90
54680;DHT22;40578;53.178;5.846;2023-10-13T03:30:16;17.50;99.90
54680;DHT22;40578;53.178;5.846;2023-10-13T03:32:42;17.50;99.90
54680;DHT22;40578;53.178;5.846;2023-10-13T03:35:19;17.50;99.90
54680;DHT22;40578;53.178;5.846;2023-10-13T03:37:54;17.60;99.90
54680;DHT22;40578;53.178;5.846;2023-10-13T03:40:21;17.50;99.90
54680;DHT22;40578;53.178;5.846;2023-10-13T03:42:51;17.70;99.90
54680;DHT22;40578;53.178;5.846;2023-10-13T03:45:43;17.40;99.90
54680;DHT22;40578;53.178;5.846;2023-10-13T03:48:14;17.40;99.90
54680;DHT22;40578;53.178;5.846;2023-10-13T03:51:01;17.50;99.90
54680;DHT22;40578;53.178;5.846;2023-10-13T03:53:37;17.40;99.90
54680;DHT22;40578;53.178;5.846;2023-10-13T03:56:21;17.30;99.90
54680;DHT22;40578;53.178;5.846;2023-10-13T03:58:57;17.40;99.90
54680;DHT22;40578;53.178;5.846;2023-10-13T04:01:25;17.60;99.90
54680;DHT22;40578;53.178;5.846;2023-10-13T04:04:00;17.30;99.90
54680;DHT22;40578;53.178;5.846;2023-10-13T04:06:34;17.20;99.90
54680;DHT22;40578;53.178;5.846;2023-10-13T04:09:18;17.30;99.90
54680;DHT22;40578;53.178;5.846;2023-10-13T04:12:02;17.30;99.90
54680;DHT22;40578;53.178;5.846;2023-10-13T04:14:30;17.30;99.90
54680;DHT22;40578;53.178;5.846;2023-10-13T04:17:14;17.30;99.90
54680;DHT22;40578;53.178;5.846;2023-10-13T04:19:41;17.40;99.90
54680;DHT22;40578;53.178;5.846;2023-10-13T04:22:26;17.40;99.90
54680;DHT22;40578;53.178;5.846;2023-10-13T04:25:27;17.70;99.90
54680;DHT22;40578;53.178;5.846;2023-10-13T04:28:13;17.40;99.90
54680;DHT22;40578;53.178;5.846;2023-10-13T04:30:49;17.50;99.90
54680;DHT22;40578;53.178;5.846;2023-10-13T04:33:28;17.50;99.90
54680;DHT22;40578;53.178;5.846;2023-10-13T04:38:57;17.60;99.90
54680;DHT22;40578;53.178;5.846;2023-10-13T04:41:30;17.40;99.90
54680;DHT22;40578;53.178;5.846;2023-10-13T04:44:05;17.50;99.90
54680;DHT22;40578;53.178;5.846;2023-10-13T04:46:52;17.50;99.90
54680;DHT22;40578;53.178;5.846;2023-10-13T04:49:21;17.60;99.90
54680;DHT22;40578;53.178;5.846;2023-10-13T04:52:06;17.40;99.90
54680;DHT22;40578;53.178;5.846;2023-10-13T04:57:20;17.60;99.90
54680;DHT22;40578;53.178;5.846;2023-10-13T05:00:13;17.30;99.90
54680;DHT22;40578;53.178;5.846;2023-10-13T05:02:46;17.40;99.90
54680;DHT22;40578;53.178;5.846;2023-10-13T05:05:43;17.80;99.90
54680;DHT22;40578;53.178;5.846;2023-10-13T05:08:35;17.50;99.90
54680;DHT22;40578;53.178;5.846;2023-10-13T05:11:33;17.30;99.90
54680;DHT22;40578;53.178;5.846;2023-10-13T05:14:18;17.40;99.90
54680;DHT22;40578;53.178;5.846;2023-10-13T05:17:02;17.30;99.90
54680;DHT22;40578;53.178;5.846;2023-10-13T05:19:46;17.30;99.90
54680;DHT22;40578;53.178;5.846;2023-10-13T05:22:31;17.40;99.90
54680;DHT22;40578;53.178;5.846;2023-10-13T05:25:15;17.30;99.90
54680;DHT22;40578;53.178;5.846;2023-10-13T05:27:59;17.40;99.90
54680;DHT22;40578;53.178;5.846;2023-10-13T05:30:43;17.30;99.90
54680;DHT22;40578;53.178;5.846;2023-10-13T05:33:27;17.30;99.90
54680;DHT22;40578;53.178;5.846;2023-10-13T05:36:11;17.20;99.90
54680;DHT22;40578;53.178;5.846;2023-10-13T05:39:09;17.30;99.90
54680;DHT22;40578;53.178;5.846;2023-10-13T05:41:54;17.30;99.90
54680;DHT22;40578;53.178;5.846;2023-10-13T05:44:38;17.10;99.90
54680;DHT22;40578;53.178;5.846;2023-10-13T05:47:22;17.30;99.90
54680;DHT22;40578;53.178;5.846;2023-10-13T05:50:06;17.20;99.90
54680;DHT22;40578;53.178;5.846;2023-10-13T05:52:40;17.10;99.90
54680;DHT22;40578;53.178;5.846;2023-10-13T05:55:28;17.10;99.90
54680;DHT22;40578;53.178;5.846;2023-10-13T05:58:13;16.90;99.90
54680;DHT22;40578;53.178;5.846;2023-10-13T06:00:58;16.90;99.90
54680;DHT22;40578;53.178;5.846;2023-10-13T06:03:42;17.00;99.90
54680;DHT22;40578;53.178;5.846;2023-10-13T06:06:26;17.00;99.90
54680;DHT22;40578;53.178;5.846;2023-10-13T06:09:10;16.90;99.90
54680;DHT22;40578;53.178;5.846;2023-10-13T06:11:54;17.00;99.90
54680;DHT22;40578;53.178;5.846;2023-10-13T06:14:38;17.00;99.90
54680;DHT22;40578;53.178;5.846;2023-10-13T06:17:23;17.00;99.90
54680;DHT22;40578;53.178;5.846;2023-10-13T06:20:07;17.00;99.90
54680;DHT22;40578;53.178;5.846;2023-10-13T06:22:51;17.10;99.90
54680;DHT22;40578;53.178;5.846;2023-10-13T06:25:36;17.30;99.90
54680;DHT22;40578;53.178;5.846;2023-10-13T06:28:28;17.20;99.90
54680;DHT22;40578;53.178;5.846;2023-10-13T06:31:11;17.30;99.90
54680;DHT22;40578;53.178;5.846;2023-10-13T06:33:51;17.40;99.90
54680;DHT22;40578;53.178;5.846;2023-10-13T06:36:17;17.50;99.90
54680;DHT22;40578;53.178;5.846;2023-10-13T06:38:43;17.30;99.90
54680;DHT22;40578;53.178;5.846;2023-10-13T06:41:09;17.50;99.90
54680;DHT22;40578;53.178;5.846;2023-10-13T06:43:36;17.40;99.90
54680;DHT22;40578;53.178;5.846;2023-10-13T06:46:06;17.40;99.90
54680;DHT22;40578;53.178;5.846;2023-10-13T06:48:33;17.60;99.90
54680;DHT22;40578;53.178;5.846;2023-10-13T06:51:01;17.30;99.90
54680;DHT22;40578;53.178;5.846;2023-10-13T06:53:32;17.40;99.90
54680;DHT22;40578;53.178;5.846;2023-10-13T06:56:06;17.40;99.90
54680;DHT22;40578;53.178;5.846;2023-10-13T06:58:32;17.40;99.90
54680;DHT22;40578;53.178;5.846;2023-10-13T07:00:58;17.50;99.90
54680;DHT22;40578;53.178;5.846;2023-10-13T07:03:27;17.40;99.90
54680;DHT22;40578;53.178;5.846;2023-10-13T07:05:52;17.40;99.90
54680;DHT22;40578;53.178;5.846;2023-10-13T07:08:19;17.50;99.90
54680;DHT22;40578;53.178;5.846;2023-10-13T07:10:55;17.50;99.90
54680;DHT22;40578;53.178;5.846;2023-10-13T07:13:43;17.30;99.90
54680;DHT22;40578;53.178;5.846;2023-10-13T07:16:15;17.40;99.90
54680;DHT22;40578;53.178;5.846;2023-10-13T07:18:41;17.30;99.90
54680;DHT22;40578;53.178;5.846;2023-10-13T07:21:16;17.40;99.90
54680;DHT22;40578;53.178;5.846;2023-10-13T07:23:41;17.40;99.90
54680;DHT22;40578;53.178;5.846;2023-10-13T07:26:26;17.30;99.90
54680;DHT22;40578;53.178;5.846;2023-10-13T07:28:54;17.30;99.90
54680;DHT22;40578;53.178;5.846;2023-10-13T07:31:20;17.30;99.90
54680;DHT22;40578;53.178;5.846;2023-10-13T07:33:46;17.00;99.90
54680;DHT22;40578;53.178;5.846;2023-10-13T07:36:12;17.20;99.90
54680;DHT22;40578;53.178;5.846;2023-10-13T07:38:43;17.00;99.90
54680;DHT22;40578;53.178;5.846;2023-10-13T07:41:09;17.10;99.90
54680;DHT22;40578;53.178;5.846;2023-10-13T07:43:35;16.90;99.90
54680;DHT22;40578;53.178;5.846;2023-10-13T07:46:04;17.00;99.90
54680;DHT22;40578;53.178;5.846;2023-10-13T07:48:36;17.00;99.90
54680;DHT22;40578;53.178;5.846;2023-10-13T07:51:04;17.00;99.90
54680;DHT22;40578;53.178;5.846;2023-10-13T07:53:31;17.00;99.90
54680;DHT22;40578;53.178;5.846;2023-10-13T07:56:03;17.00;99.90
54680;DHT22;40578;53.178;5.846;2023-10-13T07:58:31;17.00;99.90
54680;DHT22;40578;53.178;5.846;2023-10-13T08:00:58;16.90;99.90
54680;DHT22;40578;53.178;5.846;2023-10-13T08:03:24;16.90;99.90
54680;DHT22;40578;53.178;5.846;2023-10-13T08:06:08;17.00;99.90
54680;DHT22;40578;53.178;5.846;2023-10-13T08:08:36;17.00;99.90
54680;DHT22;40578;53.178;5.846;2023-10-13T08:11:13;17.10;99.90
54680;DHT22;40578;53.178;5.846;2023-10-13T08:14:01;17.10;99.90
54680;DHT22;40578;53.178;5.846;2023-10-13T08:16:36;17.20;99.90
54680;DHT22;40578;53.178;5.846;2023-10-13T08:19:16;17.20;99.90
54680;DHT22;40578;53.178;5.846;2023-10-13T08:21:47;17.40;99.90
54680;DHT22;40578;53.178;5.846;2023-10-13T08:24:23;17.40;99.90
54680;DHT22;40578;53.178;5.846;2023-10-13T08:27:19;17.30;99.90
54680;DHT22;40578;53.178;5.846;2023-10-13T08:30:01;17.40;99.90
54680;DHT22;40578;53.178;5.846;2023-10-13T08:32:28;17.30;99.90
54680;DHT22;40578;53.178;5.846;2023-10-13T08:34:58;17.40;99.90
54680;DHT22;40578;53.178;5.846;2023-10-13T08:37:25;17.40;99.90
54680;DHT22;40578;53.178;5.846;2023-10-13T08:39:52;18.50;99.90
54680;DHT22;40578;53.178;5.846;2023-10-13T08:42:37;17.40;99.90
54680;DHT22;40578;53.178;5.846;2023-10-13T08:45:14;17.50;99.90
54680;DHT22;40578;53.178;5.846;2023-10-13T08:47:50;17.50;99.90
54680;DHT22;40578;53.178;5.846;2023-10-13T08:50:35;17.60;99.90
54680;DHT22;40578;53.178;5.846;2023-10-13T08:56:05;17.60;99.90
54680;DHT22;40578;53.178;5.846;2023-10-13T08:58:35;17.60;99.90
54680;DHT22;40578;53.178;5.846;2023-10-13T09:04:20;17.70;99.90
54680;DHT22;40578;53.178;5.846;2023-10-13T09:07:03;17.80;99.90
54680;DHT22;40578;53.178;5.846;2023-10-13T09:12:21;18.00;99.90
54680;DHT22;40578;53.178;5.846;2023-10-13T09:15:10;18.10;99.90
54680;DHT22;40578;53.178;5.846;2023-10-13T09:17:46;18.20;99.90
54680;DHT22;40578;53.178;5.846;2023-10-13T09:20:30;18.40;99.90
54680;DHT22;40578;53.178;5.846;2023-10-13T09:23:13;18.40;99.90
54680;DHT22;40578;53.178;5.846;2023-10-13T09:25:49;18.40;99.90
54680;DHT22;40578;53.178;5.846;2023-10-13T09:28:34;18.30;99.90
54680;DHT22;40578;53.178;5.846;2023-10-13T09:31:02;18.40;99.90
54680;DHT22;40578;53.178;5.846;2023-10-13T09:33:33;18.50;99.90
54680;DHT22;40578;53.178;5.846;2023-10-13T09:36:04;18.50;99.90
54680;DHT22;40578;53.178;5.846;2023-10-13T09:38:38;18.50;99.90
54680;DHT22;40578;53.178;5.846;2023-10-13T09:41:13;18.60;99.90
54680;DHT22;40578;53.178;5.846;2023-10-13T09:43:51;18.50;99.90
54680;DHT22;40578;53.178;5.846;2023-10-13T09:46:20;18.60;99.90
54680;DHT22;40578;53.178;5.846;2023-10-13T09:48:49;18.70;99.90
54680;DHT22;40578;53.178;5.846;2023-10-13T09:51:30;18.70;99.90
54680;DHT22;40578;53.178;5.846;2023-10-13T09:54:24;18.70;99.90
54680;DHT22;40578;53.178;5.846;2023-10-13T09:56:59;18.70;99.90
54680;DHT22;40578;53.178;5.846;2023-10-13T09:59:39;18.70;99.90
54680;DHT22;40578;53.178;5.846;2023-10-13T10:02:09;18.70;99.90
54680;DHT22;40578;53.178;5.846;2023-10-13T10:04:38;18.70;99.90
54680;DHT22;40578;53.178;5.846;2023-10-13T10:07:29;18.70;99.90
54680;DHT22;40578;53.178;5.846;2023-10-13T10:09:59;18.70;99.90
54680;DHT22;40578;53.178;5.846;2023-10-13T10:17:41;18.80;99.90
54680;DHT22;40578;53.178;5.846;2023-10-13T10:20:07;18.90;99.90
54680;DHT22;40578;53.178;5.846;2023-10-13T10:22:59;19.00;99.90
54680;DHT22;40578;53.178;5.846;2023-10-13T10:25:31;19.10;99.90
54680;DHT22;40578;53.178;5.846;2023-10-13T10:28:10;19.20;99.90
54680;DHT22;40578;53.178;5.846;2023-10-13T10:30:41;19.20;99.90
54680;DHT22;40578;53.178;5.846;2023-10-13T10:33:07;19.20;99.90
54680;DHT22;40578;53.178;5.846;2023-10-13T10:35:45;19.20;99.90
54680;DHT22;40578;53.178;5.846;2023-10-13T10:38:16;19.10;99.90
54680;DHT22;40578;53.178;5.846;2023-10-13T10:41:04;19.20;99.90
54680;DHT22;40578;53.178;5.846;2023-10-13T10:43:36;19.20;99.90
54680;DHT22;40578;53.178;5.846;2023-10-13T10:48:38;19.20;99.90
54680;DHT22;40578;53.178;5.846;2023-10-13T10:51:09;19.30;99.90
54680;DHT22;40578;53.178;5.846;2023-10-13T10:54:00;19.40;99.90
54680;DHT22;40578;53.178;5.846;2023-10-13T10:56:38;19.60;99.90
54680;DHT22;40578;53.178;5.846;2023-10-13T10:59:06;19.60;99.90
54680;DHT22;40578;53.178;5.846;2023-10-13T11:01:44;19.60;99.90
54680;DHT22;40578;53.178;5.846;2023-10-13T11:04:17;19.50;99.90
54680;DHT22;40578;53.178;5.846;2023-10-13T11:06:59;19.60;99.90
54680;DHT22;40578;53.178;5.846;2023-10-13T11:09:33;19.50;99.90
54680;DHT22;40578;53.178;5.846;2023-10-13T11:14:49;19.40;99.90
54680;DHT22;40578;53.178;5.846;2023-10-13T11:17:20;19.40;99.90
54680;DHT22;40578;53.178;5.846;2023-10-13T11:19:50;19.40;99.90
54680;DHT22;40578;53.178;5.846;2023-10-13T11:22:20;19.40;99.90
54680;DHT22;40578;53.178;5.846;2023-10-13T11:25:02;19.40;99.90
54680;DHT22;40578;53.178;5.846;2023-10-13T11:27:40;19.40;99.90
54680;DHT22;40578;53.178;5.846;2023-10-13T11:30:16;19.40;99.90
54680;DHT22;40578;53.178;5.846;2023-10-13T11:32:46;19.40;99.90
54680;DHT22;40578;53.178;5.846;2023-10-13T11:35:21;19.40;99.90
54680;DHT22;40578;53.178;5.846;2023-10-13T11:37:49;19.30;99.90
54680;DHT22;40578;53.178;5.846;2023-10-13T11:40:33;19.20;99.90
54680;DHT22;40578;53.178;5.846;2023-10-13T11:43:18;19.00;99.90
54680;DHT22;40578;53.178;5.846;2023-10-13T11:45:50;18.90;99.90
54680;DHT22;40578;53.178;5.846;2023-10-13T11:48:42;18.50;99.90
54680;DHT22;40578;53.178;5.846;2023-10-13T11:51:10;18.20;99.90
54680;DHT22;40578;53.178;5.846;2023-10-13T11:53:43;18.40;99.90
54680;DHT22;40578;53.178;5.846;2023-10-13T11:56:17;18.30;99.90
54680;DHT22;40578;53.178;5.846;2023-10-13T11:58:46;18.10;99.90
54680;DHT22;40578;53.178;5.846;2023-10-13T12:01:12;18.20;99.90
54680;DHT22;40578;53.178;5.846;2023-10-13T12:03:45;18.30;99.90
54680;DHT22;40578;53.178;5.846;2023-10-13T12:06:30;18.50;99.90
54680;DHT22;40578;53.178;5.846;2023-10-13T12:09:09;19.00;99.90
54680;DHT22;40578;53.178;5.846;2023-10-13T12:11:48;18.60;99.90
54680;DHT22;40578;53.178;5.846;2023-10-13T12:14:19;18.60;99.90
54680;DHT22;40578;53.178;5.846;2023-10-13T12:16:49;18.60;99.90
54680;DHT22;40578;53.178;5.846;2023-10-13T12:19:20;18.60;99.90
54680;DHT22;40578;53.178;5.846;2023-10-13T12:21:58;18.50;99.90
54680;DHT22;40578;53.178;5.846;2023-10-13T12:24:33;18.40;99.90
54680;DHT22;40578;53.178;5.846;2023-10-13T12:27:08;18.20;99.90
54680;DHT22;40578;53.178;5.846;2023-10-13T12:29:50;19.00;99.90
54680;DHT22;40578;53.178;5.846;2023-10-13T12:32:22;18.70;99.90
54680;DHT22;40578;53.178;5.846;2023-10-13T12:34:49;18.20;99.90
54680;DHT22;40578;53.178;5.846;2023-10-13T12:37:28;18.30;99.90
54680;DHT22;40578;53.178;5.846;2023-10-13T12:40:07;18.40;99.90
54680;DHT22;40578;53.178;5.846;2023-10-13T12:42:52;18.40;99.90
54680;DHT22;40578;53.178;5.846;2023-10-13T12:45:40;18.40;99.90
54680;DHT22;40578;53.178;5.846;2023-10-13T12:48:24;18.20;99.90
54680;DHT22;40578;53.178;5.846;2023-10-13T12:51:08;18.30;99.90
54680;DHT22;40578;53.178;5.846;2023-10-13T12:53:56;18.30;99.90
54680;DHT22;40578;53.178;5.846;2023-10-13T12:56:30;18.20;99.90
54680;DHT22;40578;53.178;5.846;2023-10-13T12:58:56;18.30;99.90
54680;DHT22;40578;53.178;5.846;2023-10-13T13:01:24;18.20;99.90
54680;DHT22;40578;53.178;5.846;2023-10-13T13:03:52;18.20;99.90
54680;DHT22;40578;53.178;5.846;2023-10-13T13:06:23;18.20;99.90
54680;DHT22;40578;53.178;5.846;2023-10-13T13:08:55;18.20;99.90
54680;DHT22;40578;53.178;5.846;2023-10-13T13:11:21;18.50;99.90
54680;DHT22;40578;53.178;5.846;2023-10-13T13:13:47;18.30;99.90
54680;DHT22;40578;53.178;5.846;2023-10-13T13:16:16;17.80;99.90
54680;DHT22;40578;53.178;5.846;2023-10-13T13:18:52;18.30;99.90
54680;DHT22;40578;53.178;5.846;2023-10-13T13:21:21;18.30;99.90
54680;DHT22;40578;53.178;5.846;2023-10-13T13:23:49;18.40;99.90
54680;DHT22;40578;53.178;5.846;2023-10-13T13:26:15;18.60;99.90
54680;DHT22;40578;53.178;5.846;2023-10-13T13:28:42;18.50;99.90
54680;DHT22;40578;53.178;5.846;2023-10-13T13:31:08;18.50;99.90
54680;DHT22;40578;53.178;5.846;2023-10-13T13:33:34;18.50;99.90
54680;DHT22;40578;53.178;5.846;2023-10-13T13:36:05;18.50;99.90
54680;DHT22;40578;53.178;5.846;2023-10-13T13:38:30;18.50;99.90
54680;DHT22;40578;53.178;5.846;2023-10-13T13:40:58;18.50;99.90
54680;DHT22;40578;53.178;5.846;2023-10-13T13:43:24;18.60;99.90
54680;DHT22;40578;53.178;5.846;2023-10-13T13:46:19;18.60;99.90
54680;DHT22;40578;53.178;5.846;2023-10-13T13:48:45;18.60;99.90
54680;DHT22;40578;53.178;5.846;2023-10-13T13:51:13;18.70;99.90
54680;DHT22;40578;53.178;5.846;2023-10-13T13:53:45;18.70;99.90
54680;DHT22;40578;53.178;5.846;2023-10-13T13:56:13;19.10;99.90
54680;DHT22;40578;53.178;5.846;2023-10-13T13:58:42;18.80;99.90
54680;DHT22;40578;53.178;5.846;2023-10-13T14:01:08;18.80;99.90
54680;DHT22;40578;53.178;5.846;2023-10-13T14:03:41;18.80;99.90
54680;DHT22;40578;53.178;5.846;2023-10-13T14:06:30;18.80;99.90
54680;DHT22;40578;53.178;5.846;2023-10-13T14:08:59;18.80;99.90
54680;DHT22;40578;53.178;5.846;2023-10-13T14:11:31;18.80;99.90
54680;DHT22;40578;53.178;5.846;2023-10-13T14:14:07;18.80;99.90
54680;DHT22;40578;53.178;5.846;2023-10-13T14:16:41;18.80;99.90
54680;DHT22;40578;53.178;5.846;2023-10-13T14:19:11;18.80;99.90
54680;DHT22;40578;53.178;5.846;2023-10-13T14:21:37;18.80;99.90
54680;DHT22;40578;53.178;5.846;2023-10-13T14:24:03;18.90;99.90
54680;DHT22;40578;53.178;5.846;2023-10-13T14:26:38;18.80;99.90
54680;DHT22;40578;53.178;5.846;2023-10-13T14:29:04;18.90;99.90
54680;DHT22;40578;53.178;5.846;2023-10-13T14:31:39;19.00;99.90
54680;DHT22;40578;53.178;5.846;2023-10-13T14:34:05;19.00;99.90
54680;DHT22;40578;53.178;5.846;2023-10-13T14:36:34;19.00;99.90
54680;DHT22;40578;53.178;5.846;2023-10-13T14:39:00;19.10;99.90
54680;DHT22;40578;53.178;5.846;2023-10-13T14:41:26;19.00;99.90
54680;DHT22;40578;53.178;5.846;2023-10-13T14:43:52;19.10;99.90
54680;DHT22;40578;53.178;5.846;2023-10-13T14:46:18;19.00;99.90
54680;DHT22;40578;53.178;5.846;2023-10-13T14:48:54;19.10;99.90
54680;DHT22;40578;53.178;5.846;2023-10-13T14:51:20;19.10;99.90
54680;DHT22;40578;53.178;5.846;2023-10-13T14:53:46;19.10;99.90
54680;DHT22;40578;53.178;5.846;2023-10-13T14:56:15;19.20;99.90
54680;DHT22;40578;53.178;5.846;2023-10-13T14:58:42;19.10;99.90
54680;DHT22;40578;53.178;5.846;2023-10-13T15:01:14;19.10;99.90
54680;DHT22;40578;53.178;5.846;2023-10-13T15:03:51;19.00;99.90
54680;DHT22;40578;53.178;5.846;2023-10-13T15:06:25;19.00;99.90
54680;DHT22;40578;53.178;5.846;2023-10-13T15:08:56;19.20;99.90
54680;DHT22;40578;53.178;5.846;2023-10-13T15:11:23;19.00;99.90
54680;DHT22;40578;53.178;5.846;2023-10-13T15:13:55;19.10;99.90
54680;DHT22;40578;53.178;5.846;2023-10-13T15:16:23;19.10;99.90
54680;DHT22;40578;53.178;5.846;2023-10-13T15:18:50;19.20;99.90
54680;DHT22;40578;53.178;5.846;2023-10-13T15:21:20;19.20;99.90
54680;DHT22;40578;53.178;5.846;2023-10-13T15:23:56;19.20;99.90
54680;DHT22;40578;53.178;5.846;2023-10-13T15:26:29;19.20;99.90
54680;DHT22;40578;53.178;5.846;2023-10-13T15:28:55;19.20;99.90
54680;DHT22;40578;53.178;5.846;2023-10-13T15:31:26;19.20;99.90
54680;DHT22;40578;53.178;5.846;2023-10-13T15:33:55;19.20;99.90
54680;DHT22;40578;53.178;5.846;2023-10-13T15:36:24;19.10;99.90
54680;DHT22;40578;53.178;5.846;2023-10-13T15:38:50;19.20;99.90
54680;DHT22;40578;53.178;5.846;2023-10-13T15:41:21;19.20;99.90
54680;DHT22;40578;53.178;5.846;2023-10-13T15:43:47;19.10;99.90
54680;DHT22;40578;53.178;5.846;2023-10-13T15:46:19;19.10;99.90
54680;DHT22;40578;53.178;5.846;2023-10-13T15:48:51;19.10;99.90
54680;DHT22;40578;53.178;5.846;2023-10-13T15:51:18;19.10;99.90
54680;DHT22;40578;53.178;5.846;2023-10-13T15:53:44;19.10;99.90
54680;DHT22;40578;53.178;5.846;2023-10-13T15:56:13;19.20;99.90
54680;DHT22;40578;53.178;5.846;2023-10-13T15:58:45;19.10;99.90
54680;DHT22;40578;53.178;5.846;2023-10-13T16:01:14;19.10;99.90
54680;DHT22;40578;53.178;5.846;2023-10-13T16:03:44;19.10;99.90
54680;DHT22;40578;53.178;5.846;2023-10-13T16:06:15;19.10;99.90
54680;DHT22;40578;53.178;5.846;2023-10-13T16:08:41;19.10;99.90
54680;DHT22;40578;53.178;5.846;2023-10-13T16:11:11;19.10;99.90
54680;DHT22;40578;53.178;5.846;2023-10-13T16:13:47;19.10;99.90
54680;DHT22;40578;53.178;5.846;2023-10-13T16:16:20;19.00;99.90
54680;DHT22;40578;53.178;5.846;2023-10-13T16:18:50;19.00;99.90
54680;DHT22;40578;53.178;5.846;2023-10-13T16:21:17;19.40;99.90
54680;DHT22;40578;53.178;5.846;2023-10-13T16:23:44;18.90;99.90
54680;DHT22;40578;53.178;5.846;2023-10-13T16:26:17;18.80;99.90
54680;DHT22;40578;53.178;5.846;2023-10-13T16:28:51;18.80;99.90
54680;DHT22;40578;53.178;5.846;2023-10-13T16:31:23;18.70;99.90
54680;DHT22;40578;53.178;5.846;2023-10-13T16:33:53;18.70;99.90
54680;DHT22;40578;53.178;5.846;2023-10-13T16:36:21;18.60;99.90
54680;DHT22;40578;53.178;5.846;2023-10-13T16:38:48;18.60;99.90
54680;DHT22;40578;53.178;5.846;2023-10-13T16:41:13;18.60;99.90
54680;DHT22;40578;53.178;5.846;2023-10-13T16:43:41;18.60;99.90